CCM48EX LFKB-EBCI
Flight info
| Callsign | CCM48EX |
|---|---|
| Flight time | 1h 49m |
| Altitude | 18000 |
| Route | MEGER Z911 OLETI/N0423F340 DCT AOSTA DCT ORSUD DCT MOLUS DCT GILIR DCT PENDU DCT IXILU DCT EPL DCT ROUSY DCT BATTY |
| Aircraft | A20N/M-SBDFGIJ1RWY/S |
Departure
| Time | 2026-04-22 08:43 |
|---|---|
| Airport | Bastia-Poretta International airport (LFKB) |
Arrival
| Time | 2026-04-22 10:32 |
|---|---|
| Airport | Brussels South Charleroi Airport (EBCI) |
| Time | Latitude | Longitude | Altitude | Speed | Heading |
|---|---|---|---|---|---|
| 2026-04-22 08:28 | 42.54726 | 9.48217 | 36 ft | 0 kts | 281° |
| 2026-04-22 08:38 | 42.54728 | 9.48215 | 36 ft | 0 kts | 304° |
| 2026-04-22 08:38 | 42.54731 | 9.48214 | 36 ft | 0 kts | 7° |
| 2026-04-22 08:39 | 42.54734 | 9.48229 | 36 ft | 3 kts | 91° |
| 2026-04-22 08:39 | 42.54724 | 9.48290 | 35 ft | 8 kts | 113° |
| 2026-04-22 08:39 | 42.54682 | 9.48343 | 35 ft | 9 kts | 161° |
| 2026-04-22 08:39 | 42.54616 | 9.48368 | 36 ft | 10 kts | 163° |
| 2026-04-22 08:40 | 42.54544 | 9.48397 | 36 ft | 11 kts | 163° |
| 2026-04-22 08:40 | 42.54462 | 9.48419 | 36 ft | 12 kts | 182° |
| 2026-04-22 08:40 | 42.54373 | 9.48428 | 36 ft | 13 kts | 163° |
| 2026-04-22 08:40 | 42.54280 | 9.48467 | 36 ft | 14 kts | 161° |
| 2026-04-22 08:41 | 42.54186 | 9.48513 | 36 ft | 13 kts | 153° |
| 2026-04-22 08:41 | 42.54137 | 9.48598 | 35 ft | 10 kts | 82° |
| 2026-04-22 08:41 | 42.54138 | 9.48700 | 35 ft | 11 kts | 75° |
| 2026-04-22 08:41 | 42.54192 | 9.48785 | 35 ft | 12 kts | 28° |
| 2026-04-22 08:42 | 42.54267 | 9.48794 | 35 ft | 1 kts | 340° |
| 2026-04-22 08:42 | 42.54577 | 9.48664 | 35 ft | 88 kts | 342° |
| 2026-04-22 08:42 | 42.55395 | 9.48311 | 43 ft | 155 kts | 341° |
| 2026-04-22 08:43 | 42.56448 | 9.47822 | 646 ft | 162 kts | 342° |
| 2026-04-22 08:43 | 42.57490 | 9.47264 | 1478 ft | 164 kts | 339° |
| 2026-04-22 08:43 | 42.58525 | 9.46603 | 2161 ft | 176 kts | 340° |
| 2026-04-22 08:43 | 42.59758 | 9.46274 | 2701 ft | 190 kts | 9° |
| 2026-04-22 08:44 | 42.61042 | 9.46848 | 3331 ft | 203 kts | 25° |
| 2026-04-22 08:44 | 42.62349 | 9.47697 | 4004 ft | 217 kts | 26° |
| 2026-04-22 08:44 | 42.63791 | 9.48576 | 4578 ft | 239 kts | 23° |
| 2026-04-22 08:44 | 42.65389 | 9.49448 | 5264 ft | 257 kts | 21° |
| 2026-04-22 08:45 | 42.67074 | 9.50326 | 6144 ft | 265 kts | 20° |
| 2026-04-22 08:45 | 42.68792 | 9.51211 | 7133 ft | 269 kts | 19° |
| 2026-04-22 08:45 | 42.70522 | 9.52099 | 8080 ft | 273 kts | 17° |
| 2026-04-22 08:45 | 42.72321 | 9.52940 | 8991 ft | 277 kts | 12° |
| 2026-04-22 08:46 | 42.74193 | 9.53656 | 9917 ft | 281 kts | 9° |
| 2026-04-22 08:46 | 42.76059 | 9.54342 | 10722 ft | 288 kts | 8° |
| 2026-04-22 08:46 | 42.78047 | 9.55059 | 11270 ft | 304 kts | 8° |
| 2026-04-22 08:46 | 42.80112 | 9.55811 | 12033 ft | 311 kts | 8° |
| 2026-04-22 08:47 | 42.82183 | 9.56576 | 12915 ft | 312 kts | 8° |
| 2026-04-22 08:47 | 42.84295 | 9.57359 | 13562 ft | 314 kts | 8° |
| 2026-04-22 08:47 | 42.86401 | 9.58140 | 13951 ft | 314 kts | 7° |
| 2026-04-22 08:47 | 42.88465 | 9.58905 | 14029 ft | 314 kts | 7° |
| 2026-04-22 08:48 | 42.90582 | 9.59691 | 14043 ft | 314 kts | 7° |
| 2026-04-22 08:48 | 42.92691 | 9.60473 | 14048 ft | 313 kts | 7° |
| 2026-04-22 08:48 | 42.94803 | 9.61258 | 14041 ft | 314 kts | 7° |
| 2026-04-22 08:48 | 42.96798 | 9.61975 | 14043 ft | 312 kts | 4° |
| 2026-04-22 08:49 | 42.98900 | 9.62023 | 14029 ft | 297 kts | 342° |
| 2026-04-22 08:49 | 43.00798 | 9.60989 | 14035 ft | 288 kts | 323° |
| 2026-04-22 08:49 | 43.02291 | 9.59247 | 14053 ft | 286 kts | 313° |
| 2026-04-22 08:49 | 43.03728 | 9.57328 | 14049 ft | 286 kts | 313° |
| 2026-04-22 08:50 | 43.05202 | 9.55477 | 14087 ft | 293 kts | 321° |
| 2026-04-22 08:50 | 43.06984 | 9.54084 | 14657 ft | 303 kts | 329° |
| 2026-04-22 08:50 | 43.08847 | 9.52824 | 15628 ft | 301 kts | 329° |
| 2026-04-22 08:50 | 43.10738 | 9.51544 | 16453 ft | 303 kts | 329° |
| 2026-04-22 08:51 | 43.12617 | 9.50244 | 17208 ft | 306 kts | 329° |
| 2026-04-22 08:51 | 43.14512 | 9.48921 | 17981 ft | 308 kts | 328° |
| 2026-04-22 08:51 | 43.16410 | 9.47585 | 18733 ft | 311 kts | 328° |
| 2026-04-22 08:51 | 43.18352 | 9.46211 | 19445 ft | 314 kts | 328° |
| 2026-04-22 08:52 | 43.20280 | 9.44836 | 20130 ft | 317 kts | 328° |
| 2026-04-22 08:52 | 43.22235 | 9.43440 | 20811 ft | 321 kts | 328° |
| 2026-04-22 08:52 | 43.24223 | 9.42021 | 21507 ft | 323 kts | 328° |
| 2026-04-22 08:52 | 43.26226 | 9.40585 | 22162 ft | 327 kts | 328° |
| 2026-04-22 08:53 | 43.28171 | 9.39190 | 22785 ft | 330 kts | 328° |
| 2026-04-22 08:53 | 43.30221 | 9.37720 | 23449 ft | 332 kts | 328° |
| 2026-04-22 08:53 | 43.32277 | 9.36241 | 24116 ft | 335 kts | 328° |
| 2026-04-22 08:53 | 43.34310 | 9.34776 | 24768 ft | 336 kts | 328° |
| 2026-04-22 08:54 | 43.36393 | 9.33278 | 25404 ft | 339 kts | 328° |
| 2026-04-22 08:54 | 43.38381 | 9.31848 | 25990 ft | 341 kts | 328° |
| 2026-04-22 08:54 | 43.40406 | 9.30388 | 26635 ft | 341 kts | 328° |
| 2026-04-22 08:54 | 43.42483 | 9.28887 | 27318 ft | 341 kts | 328° |
| 2026-04-22 08:55 | 43.44589 | 9.27366 | 27875 ft | 343 kts | 328° |
| 2026-04-22 08:55 | 43.46702 | 9.25835 | 28415 ft | 344 kts | 328° |
| 2026-04-22 08:55 | 43.48816 | 9.24308 | 28937 ft | 346 kts | 328° |
| 2026-04-22 08:55 | 43.50950 | 9.22764 | 29376 ft | 349 kts | 328° |
| 2026-04-22 08:56 | 43.53032 | 9.21253 | 29798 ft | 351 kts | 328° |
| 2026-04-22 08:56 | 43.55188 | 9.19688 | 30242 ft | 352 kts | 328° |
| 2026-04-22 08:56 | 43.57354 | 9.18116 | 30671 ft | 354 kts | 328° |
| 2026-04-22 08:56 | 43.59543 | 9.16526 | 31080 ft | 355 kts | 328° |
| 2026-04-22 08:57 | 43.61595 | 9.15038 | 31490 ft | 355 kts | 328° |
| 2026-04-22 08:57 | 43.63716 | 9.13495 | 32002 ft | 353 kts | 328° |
| 2026-04-22 08:57 | 43.65906 | 9.11902 | 32508 ft | 351 kts | 328° |
| 2026-04-22 08:57 | 43.68082 | 9.10314 | 32929 ft | 351 kts | 328° |
| 2026-04-22 08:58 | 43.70224 | 9.08751 | 33272 ft | 353 kts | 328° |
| 2026-04-22 08:58 | 43.72289 | 9.07243 | 33602 ft | 354 kts | 328° |
| 2026-04-22 08:58 | 43.74479 | 9.05641 | 33963 ft | 354 kts | 328° |
| 2026-04-22 08:59 | 43.78748 | 9.02516 | 34068 ft | 355 kts | 328° |
| 2026-04-22 08:59 | 43.83062 | 8.99211 | 34071 ft | 354 kts | 326° |
| 2026-04-22 09:00 | 43.87330 | 8.95786 | 34068 ft | 355 kts | 326° |
| 2026-04-22 09:00 | 43.91568 | 8.92366 | 34071 ft | 354 kts | 326° |
| 2026-04-22 09:01 | 43.95814 | 8.88937 | 34074 ft | 354 kts | 326° |
| 2026-04-22 09:01 | 44.00015 | 8.85539 | 34072 ft | 354 kts | 326° |
| 2026-04-22 09:02 | 44.04243 | 8.82113 | 34073 ft | 355 kts | 326° |
| 2026-04-22 09:02 | 44.08437 | 8.78708 | 34073 ft | 354 kts | 326° |
| 2026-04-22 09:03 | 44.12722 | 8.75221 | 34076 ft | 355 kts | 326° |
| 2026-04-22 09:03 | 44.16951 | 8.71779 | 34082 ft | 353 kts | 326° |
| 2026-04-22 09:04 | 44.21186 | 8.68323 | 34087 ft | 354 kts | 326° |
| 2026-04-22 09:04 | 44.25424 | 8.64854 | 34090 ft | 353 kts | 325° |
| 2026-04-22 09:05 | 44.29641 | 8.61401 | 34088 ft | 353 kts | 325° |
| 2026-04-22 09:05 | 44.33892 | 8.57910 | 34090 ft | 356 kts | 325° |
| 2026-04-22 09:06 | 44.38153 | 8.54406 | 34094 ft | 355 kts | 326° |
| 2026-04-22 09:06 | 44.42414 | 8.50901 | 34092 ft | 356 kts | 326° |
| 2026-04-22 09:07 | 44.46657 | 8.47405 | 34092 ft | 357 kts | 325° |
| 2026-04-22 09:07 | 44.50928 | 8.43874 | 34092 ft | 356 kts | 325° |
| 2026-04-22 09:08 | 44.55197 | 8.40342 | 34095 ft | 358 kts | 326° |
| 2026-04-22 09:08 | 44.59488 | 8.36784 | 34092 ft | 359 kts | 325° |
| 2026-04-22 09:09 | 44.63765 | 8.33231 | 34105 ft | 356 kts | 325° |
| 2026-04-22 09:09 | 44.68026 | 8.29688 | 34099 ft | 356 kts | 324° |
| 2026-04-22 09:10 | 44.72278 | 8.26146 | 34108 ft | 356 kts | 324° |
| 2026-04-22 09:10 | 44.76514 | 8.22612 | 34114 ft | 356 kts | 324° |
| 2026-04-22 09:11 | 44.80783 | 8.19044 | 34115 ft | 357 kts | 324° |
| 2026-04-22 09:11 | 44.85048 | 8.15471 | 34116 ft | 357 kts | 324° |
| 2026-04-22 09:12 | 44.89281 | 8.11920 | 34123 ft | 357 kts | 324° |
| 2026-04-22 09:12 | 44.93562 | 8.08320 | 34127 ft | 358 kts | 324° |
| 2026-04-22 09:13 | 44.97817 | 8.04738 | 34129 ft | 357 kts | 324° |
| 2026-04-22 09:13 | 45.02081 | 8.01142 | 34136 ft | 357 kts | 324° |
| 2026-04-22 09:14 | 45.06325 | 7.97557 | 34142 ft | 356 kts | 325° |
| 2026-04-22 09:14 | 45.10570 | 7.93967 | 34145 ft | 355 kts | 325° |
| 2026-04-22 09:15 | 45.14792 | 7.90387 | 34137 ft | 355 kts | 324° |
| 2026-04-22 09:15 | 45.19051 | 7.86765 | 34133 ft | 354 kts | 324° |
| 2026-04-22 09:16 | 45.23248 | 7.83195 | 34136 ft | 353 kts | 324° |
| 2026-04-22 09:16 | 45.27489 | 7.79586 | 34132 ft | 356 kts | 325° |
| 2026-04-22 09:17 | 45.31689 | 7.75996 | 34130 ft | 354 kts | 324° |
| 2026-04-22 09:17 | 45.35920 | 7.72375 | 34128 ft | 353 kts | 324° |
| 2026-04-22 09:18 | 45.40107 | 7.68789 | 34125 ft | 353 kts | 324° |
| 2026-04-22 09:18 | 45.44315 | 7.65178 | 34127 ft | 353 kts | 325° |
| 2026-04-22 09:19 | 45.48510 | 7.61570 | 34124 ft | 352 kts | 325° |
| 2026-04-22 09:19 | 45.52655 | 7.58000 | 34120 ft | 350 kts | 324° |
| 2026-04-22 09:20 | 45.56836 | 7.54393 | 34124 ft | 350 kts | 325° |
| 2026-04-22 09:20 | 45.60970 | 7.50826 | 34117 ft | 348 kts | 325° |
| 2026-04-22 09:21 | 45.65109 | 7.47241 | 34119 ft | 349 kts | 324° |
| 2026-04-22 09:21 | 45.69243 | 7.43652 | 34104 ft | 349 kts | 324° |
| 2026-04-22 09:22 | 45.73397 | 7.40037 | 34098 ft | 347 kts | 325° |
| 2026-04-22 09:22 | 45.77514 | 7.36458 | 34092 ft | 347 kts | 324° |
| 2026-04-22 09:23 | 45.81559 | 7.32645 | 34085 ft | 346 kts | 320° |
| 2026-04-22 09:23 | 45.85468 | 7.28680 | 34094 ft | 345 kts | 320° |
| 2026-04-22 09:24 | 45.89373 | 7.24716 | 34084 ft | 346 kts | 321° |
| 2026-04-22 09:24 | 45.93298 | 7.20720 | 34064 ft | 344 kts | 321° |
| 2026-04-22 09:25 | 45.97192 | 7.16745 | 34073 ft | 344 kts | 321° |
| 2026-04-22 09:25 | 46.01075 | 7.12769 | 34057 ft | 345 kts | 321° |
| 2026-04-22 09:26 | 46.04972 | 7.08782 | 34062 ft | 345 kts | 321° |
| 2026-04-22 09:26 | 46.08876 | 7.04769 | 34061 ft | 346 kts | 321° |
| 2026-04-22 09:27 | 46.12783 | 7.00755 | 34077 ft | 345 kts | 321° |
| 2026-04-22 09:27 | 46.16687 | 6.96724 | 34084 ft | 346 kts | 320° |
| 2026-04-22 09:28 | 46.20603 | 6.92679 | 34090 ft | 345 kts | 321° |
| 2026-04-22 09:28 | 46.24502 | 6.88649 | 34084 ft | 345 kts | 321° |
| 2026-04-22 09:29 | 46.28402 | 6.84612 | 34080 ft | 347 kts | 321° |
| 2026-04-22 09:29 | 46.32344 | 6.80514 | 34075 ft | 349 kts | 321° |
| 2026-04-22 09:30 | 46.36254 | 6.76447 | 34073 ft | 349 kts | 321° |
| 2026-04-22 09:30 | 46.40168 | 6.72365 | 34071 ft | 348 kts | 321° |
| 2026-04-22 09:31 | 46.44230 | 6.68463 | 34065 ft | 350 kts | 325° |
| 2026-04-22 09:31 | 46.48508 | 6.65111 | 34071 ft | 353 kts | 329° |
| 2026-04-22 09:32 | 46.52922 | 6.61982 | 34063 ft | 354 kts | 328° |
| 2026-04-22 09:32 | 46.57358 | 6.58846 | 34063 ft | 355 kts | 328° |
| 2026-04-22 09:33 | 46.61800 | 6.55697 | 34060 ft | 355 kts | 329° |
| 2026-04-22 09:33 | 46.66221 | 6.52568 | 34073 ft | 353 kts | 329° |
| 2026-04-22 09:34 | 46.70643 | 6.49440 | 34070 ft | 355 kts | 329° |
| 2026-04-22 09:34 | 46.75067 | 6.46294 | 34063 ft | 354 kts | 329° |
| 2026-04-22 09:35 | 46.81729 | 6.41561 | 34054 ft | 355 kts | 329° |
| 2026-04-22 09:35 | 46.86154 | 6.38402 | 34043 ft | 355 kts | 329° |
| 2026-04-22 09:36 | 46.90576 | 6.35241 | 34047 ft | 354 kts | 329° |
| 2026-04-22 09:36 | 46.95005 | 6.32068 | 34044 ft | 354 kts | 328° |
| 2026-04-22 09:37 | 46.99427 | 6.28899 | 34029 ft | 355 kts | 328° |
| 2026-04-22 09:37 | 47.03867 | 6.25709 | 34036 ft | 355 kts | 329° |
| 2026-04-22 09:38 | 47.08289 | 6.22529 | 34034 ft | 355 kts | 329° |
| 2026-04-22 09:38 | 47.12746 | 6.19323 | 34028 ft | 356 kts | 328° |
| 2026-04-22 09:39 | 47.17176 | 6.16117 | 34048 ft | 357 kts | 329° |
| 2026-04-22 09:39 | 47.21634 | 6.12899 | 34063 ft | 357 kts | 328° |
| 2026-04-22 09:40 | 47.26101 | 6.09661 | 34033 ft | 358 kts | 329° |
| 2026-04-22 09:40 | 47.30724 | 6.06775 | 34039 ft | 363 kts | 335° |
| 2026-04-22 09:41 | 47.35620 | 6.04762 | 34058 ft | 370 kts | 341° |
| 2026-04-22 09:41 | 47.40720 | 6.03684 | 34044 ft | 371 kts | 348° |
| 2026-04-22 09:42 | 47.45884 | 6.03536 | 34056 ft | 369 kts | 352° |
| 2026-04-22 09:42 | 47.50984 | 6.03629 | 34070 ft | 367 kts | 352° |
| 2026-04-22 09:43 | 47.56082 | 6.03730 | 34068 ft | 367 kts | 352° |
| 2026-04-22 09:43 | 47.61210 | 6.03850 | 34057 ft | 367 kts | 352° |
| 2026-04-22 09:44 | 47.66299 | 6.03970 | 34064 ft | 368 kts | 352° |
| 2026-04-22 09:44 | 47.71428 | 6.04089 | 34079 ft | 368 kts | 353° |
| 2026-04-22 09:45 | 47.76526 | 6.04220 | 34083 ft | 368 kts | 353° |
| 2026-04-22 09:45 | 47.81633 | 6.04379 | 34082 ft | 367 kts | 353° |
| 2026-04-22 09:46 | 47.86747 | 6.04537 | 34083 ft | 368 kts | 353° |
| 2026-04-22 09:46 | 47.91839 | 6.04700 | 34084 ft | 368 kts | 353° |
| 2026-04-22 09:47 | 47.96951 | 6.04854 | 34085 ft | 368 kts | 353° |
| 2026-04-22 09:47 | 48.02075 | 6.05015 | 34092 ft | 368 kts | 354° |
| 2026-04-22 09:48 | 48.07188 | 6.05176 | 34103 ft | 368 kts | 353° |
| 2026-04-22 09:48 | 48.12319 | 6.05338 | 34107 ft | 369 kts | 354° |
| 2026-04-22 09:49 | 48.17445 | 6.05502 | 34117 ft | 369 kts | 354° |
| 2026-04-22 09:49 | 48.22568 | 6.05663 | 34123 ft | 371 kts | 354° |
| 2026-04-22 09:50 | 48.27717 | 6.05824 | 34139 ft | 371 kts | 354° |
| 2026-04-22 09:50 | 48.32883 | 6.05994 | 34140 ft | 373 kts | 355° |
| 2026-04-22 09:51 | 48.38100 | 6.06240 | 34139 ft | 374 kts | 355° |
| 2026-04-22 09:51 | 48.43286 | 6.06482 | 34147 ft | 375 kts | 356° |
| 2026-04-22 09:52 | 48.48538 | 6.06732 | 34162 ft | 377 kts | 356° |
| 2026-04-22 09:52 | 48.53767 | 6.06981 | 34164 ft | 378 kts | 356° |
| 2026-04-22 09:53 | 48.59000 | 6.07231 | 34171 ft | 378 kts | 356° |
| 2026-04-22 09:53 | 48.64282 | 6.07483 | 34179 ft | 380 kts | 357° |
| 2026-04-22 09:54 | 48.69558 | 6.07730 | 34189 ft | 381 kts | 357° |
| 2026-04-22 09:54 | 48.74845 | 6.07986 | 34191 ft | 381 kts | 357° |
| 2026-04-22 09:55 | 48.80146 | 6.08235 | 34198 ft | 384 kts | 358° |
| 2026-04-22 09:55 | 48.85483 | 6.08494 | 34200 ft | 386 kts | 358° |
| 2026-04-22 09:56 | 48.90860 | 6.08750 | 34205 ft | 386 kts | 358° |
| 2026-04-22 09:56 | 48.96225 | 6.09007 | 34206 ft | 388 kts | 358° |
| 2026-04-22 09:57 | 49.01627 | 6.09265 | 34217 ft | 388 kts | 359° |
| 2026-04-22 09:57 | 49.07034 | 6.09528 | 34221 ft | 389 kts | 359° |
| 2026-04-22 09:58 | 49.12434 | 6.09787 | 34222 ft | 390 kts | 359° |
| 2026-04-22 09:58 | 49.17882 | 6.10051 | 34225 ft | 390 kts | 359° |
| 2026-04-22 09:59 | 49.23288 | 6.10314 | 34228 ft | 390 kts | 359° |
| 2026-04-22 09:59 | 49.28714 | 6.10576 | 34235 ft | 389 kts | 359° |
| 2026-04-22 10:00 | 49.34132 | 6.10845 | 34234 ft | 388 kts | 359° |
| 2026-04-22 10:00 | 49.39509 | 6.11107 | 34235 ft | 389 kts | 359° |
| 2026-04-22 10:01 | 49.44923 | 6.11328 | 34242 ft | 389 kts | 358° |
| 2026-04-22 10:01 | 49.50290 | 6.10865 | 34243 ft | 388 kts | 352° |
| 2026-04-22 10:02 | 49.55646 | 6.09738 | 34248 ft | 388 kts | 351° |
| 2026-04-22 10:02 | 49.60959 | 6.08552 | 34249 ft | 388 kts | 351° |
| 2026-04-22 10:03 | 49.66284 | 6.07361 | 33967 ft | 388 kts | 351° |
| 2026-04-22 10:03 | 49.68957 | 6.06761 | 33735 ft | 386 kts | 351° |
| 2026-04-22 10:03 | 49.71588 | 6.06171 | 33499 ft | 384 kts | 351° |
| 2026-04-22 10:04 | 49.74239 | 6.05577 | 33188 ft | 383 kts | 351° |
| 2026-04-22 10:04 | 49.76842 | 6.04993 | 32756 ft | 383 kts | 352° |
| 2026-04-22 10:04 | 49.79470 | 6.04403 | 32187 ft | 384 kts | 352° |
| 2026-04-22 10:04 | 49.82105 | 6.03812 | 31562 ft | 387 kts | 352° |
| 2026-04-22 10:05 | 49.84768 | 6.03212 | 30895 ft | 390 kts | 352° |
| 2026-04-22 10:05 | 49.87481 | 6.02602 | 30162 ft | 393 kts | 352° |
| 2026-04-22 10:05 | 49.90162 | 6.01995 | 29490 ft | 395 kts | 352° |
| 2026-04-22 10:05 | 49.92862 | 6.01384 | 29004 ft | 391 kts | 353° |
| 2026-04-22 10:06 | 49.95534 | 6.00781 | 28522 ft | 388 kts | 353° |
| 2026-04-22 10:06 | 49.98205 | 6.00178 | 28044 ft | 384 kts | 353° |
| 2026-04-22 10:06 | 50.00820 | 5.99588 | 27582 ft | 381 kts | 353° |
| 2026-04-22 10:06 | 50.03447 | 5.98992 | 27115 ft | 378 kts | 354° |
| 2026-04-22 10:07 | 50.06017 | 5.98409 | 26650 ft | 375 kts | 354° |
| 2026-04-22 10:07 | 50.08590 | 5.97826 | 26188 ft | 372 kts | 354° |
| 2026-04-22 10:07 | 50.11126 | 5.97249 | 25731 ft | 370 kts | 354° |
| 2026-04-22 10:07 | 50.13685 | 5.96667 | 25264 ft | 367 kts | 355° |
| 2026-04-22 10:08 | 50.16228 | 5.96086 | 24800 ft | 365 kts | 355° |
| 2026-04-22 10:08 | 50.18714 | 5.95518 | 24340 ft | 362 kts | 355° |
| 2026-04-22 10:08 | 50.21195 | 5.94953 | 23875 ft | 360 kts | 355° |
| 2026-04-22 10:08 | 50.23683 | 5.94387 | 23409 ft | 358 kts | 355° |
| 2026-04-22 10:09 | 50.26109 | 5.93834 | 22957 ft | 355 kts | 355° |
| 2026-04-22 10:09 | 50.28567 | 5.93272 | 22502 ft | 353 kts | 355° |
| 2026-04-22 10:09 | 50.30984 | 5.92720 | 22055 ft | 351 kts | 355° |
| 2026-04-22 10:09 | 50.33367 | 5.92172 | 21618 ft | 348 kts | 356° |
| 2026-04-22 10:10 | 50.35748 | 5.91626 | 21177 ft | 346 kts | 355° |
| 2026-04-22 10:10 | 50.38114 | 5.91081 | 20737 ft | 344 kts | 356° |
| 2026-04-22 10:10 | 50.40494 | 5.90534 | 20289 ft | 342 kts | 356° |
| 2026-04-22 10:10 | 50.42833 | 5.89995 | 19851 ft | 340 kts | 356° |
| 2026-04-22 10:11 | 50.45166 | 5.89457 | 19409 ft | 338 kts | 356° |
| 2026-04-22 10:11 | 50.47480 | 5.88924 | 18966 ft | 337 kts | 356° |
| 2026-04-22 10:11 | 50.49780 | 5.88393 | 18527 ft | 335 kts | 356° |
| 2026-04-22 10:11 | 50.52080 | 5.87862 | 18081 ft | 333 kts | 356° |
| 2026-04-22 10:12 | 50.54352 | 5.87337 | 17665 ft | 331 kts | 356° |
| 2026-04-22 10:12 | 50.56639 | 5.86807 | 17242 ft | 329 kts | 356° |
| 2026-04-22 10:12 | 50.58878 | 5.86287 | 16819 ft | 327 kts | 356° |
| 2026-04-22 10:12 | 50.61112 | 5.85627 | 16365 ft | 330 kts | 346° |
| 2026-04-22 10:13 | 50.63110 | 5.83840 | 15901 ft | 339 kts | 322° |
| 2026-04-22 10:13 | 50.64571 | 5.80870 | 15471 ft | 346 kts | 299° |
| 2026-04-22 10:13 | 50.65206 | 5.77266 | 15069 ft | 349 kts | 277° |
| 2026-04-22 10:13 | 50.65295 | 5.73465 | 14661 ft | 348 kts | 273° |
| 2026-04-22 10:14 | 50.65332 | 5.69655 | 14237 ft | 346 kts | 272° |
| 2026-04-22 10:14 | 50.65374 | 5.65884 | 13855 ft | 344 kts | 273° |
| 2026-04-22 10:14 | 50.65429 | 5.62127 | 13444 ft | 343 kts | 273° |
| 2026-04-22 10:14 | 50.65493 | 5.58380 | 13031 ft | 341 kts | 273° |
| 2026-04-22 10:15 | 50.65562 | 5.54654 | 12636 ft | 339 kts | 273° |
| 2026-04-22 10:15 | 50.65634 | 5.50937 | 12236 ft | 338 kts | 273° |
| 2026-04-22 10:15 | 50.65705 | 5.47256 | 11835 ft | 337 kts | 273° |
| 2026-04-22 10:15 | 50.65775 | 5.43600 | 11422 ft | 336 kts | 273° |
| 2026-04-22 10:16 | 50.65845 | 5.39920 | 11016 ft | 335 kts | 273° |
| 2026-04-22 10:16 | 50.65911 | 5.36309 | 10732 ft | 328 kts | 273° |
| 2026-04-22 10:16 | 50.65976 | 5.32770 | 10453 ft | 321 kts | 272° |
| 2026-04-22 10:16 | 50.66037 | 5.29324 | 10300 ft | 309 kts | 272° |
| 2026-04-22 10:17 | 50.66096 | 5.25939 | 10028 ft | 305 kts | 272° |
| 2026-04-22 10:17 | 50.66153 | 5.22630 | 9685 ft | 303 kts | 272° |
| 2026-04-22 10:17 | 50.66210 | 5.19332 | 9341 ft | 302 kts | 272° |
| 2026-04-22 10:17 | 50.66164 | 5.16055 | 8984 ft | 301 kts | 262° |
| 2026-04-22 10:18 | 50.65635 | 5.12860 | 8645 ft | 298 kts | 247° |
| 2026-04-22 10:18 | 50.64810 | 5.09884 | 8305 ft | 296 kts | 243° |
| 2026-04-22 10:18 | 50.63936 | 5.06974 | 7722 ft | 305 kts | 243° |
| 2026-04-22 10:18 | 50.63015 | 5.03895 | 6906 ft | 318 kts | 243° |
| 2026-04-22 10:19 | 50.62077 | 5.00716 | 6436 ft | 316 kts | 243° |
| 2026-04-22 10:19 | 50.61180 | 4.97639 | 6286 ft | 304 kts | 243° |
| 2026-04-22 10:19 | 50.60331 | 4.94717 | 6285 ft | 288 kts | 243° |
| 2026-04-22 10:19 | 50.59501 | 4.91859 | 6289 ft | 280 kts | 243° |
| 2026-04-22 10:20 | 50.58707 | 4.89129 | 6278 ft | 276 kts | 243° |
| 2026-04-22 10:20 | 50.57906 | 4.86380 | 6288 ft | 274 kts | 243° |
| 2026-04-22 10:20 | 50.57116 | 4.83668 | 6291 ft | 273 kts | 243° |
| 2026-04-22 10:20 | 50.56319 | 4.80939 | 6283 ft | 273 kts | 243° |
| 2026-04-22 10:21 | 50.55532 | 4.78242 | 6277 ft | 272 kts | 243° |
| 2026-04-22 10:21 | 50.54744 | 4.75543 | 6274 ft | 272 kts | 243° |
| 2026-04-22 10:21 | 50.53946 | 4.72818 | 6282 ft | 272 kts | 243° |
| 2026-04-22 10:21 | 50.53156 | 4.70121 | 6287 ft | 272 kts | 243° |
| 2026-04-22 10:22 | 50.52364 | 4.67422 | 6286 ft | 272 kts | 243° |
| 2026-04-22 10:22 | 50.51582 | 4.64756 | 6290 ft | 272 kts | 243° |
| 2026-04-22 10:22 | 50.50787 | 4.62049 | 6280 ft | 272 kts | 243° |
| 2026-04-22 10:22 | 50.49989 | 4.59336 | 6292 ft | 273 kts | 243° |
| 2026-04-22 10:23 | 50.49194 | 4.56640 | 6291 ft | 272 kts | 243° |
| 2026-04-22 10:23 | 50.48398 | 4.53940 | 6287 ft | 273 kts | 243° |
| 2026-04-22 10:23 | 50.47597 | 4.51225 | 6289 ft | 273 kts | 243° |
| 2026-04-22 10:23 | 50.46920 | 4.48476 | 6287 ft | 274 kts | 256° |
| 2026-04-22 10:24 | 50.46724 | 4.45417 | 6171 ft | 288 kts | 272° |
| 2026-04-22 10:24 | 50.46862 | 4.42292 | 5916 ft | 287 kts | 276° |
| 2026-04-22 10:24 | 50.47063 | 4.39219 | 5629 ft | 286 kts | 277° |
| 2026-04-22 10:24 | 50.47257 | 4.36124 | 5313 ft | 285 kts | 276° |
| 2026-04-22 10:25 | 50.47433 | 4.32984 | 4983 ft | 283 kts | 275° |
| 2026-04-22 10:25 | 50.47591 | 4.29919 | 4725 ft | 278 kts | 275° |
| 2026-04-22 10:25 | 50.47534 | 4.26973 | 4610 ft | 266 kts | 257° |
| 2026-04-22 10:25 | 50.46948 | 4.24305 | 4529 ft | 253 kts | 244° |
| 2026-04-22 10:26 | 50.46215 | 4.21865 | 4449 ft | 241 kts | 241° |
| 2026-04-22 10:26 | 50.45468 | 4.19612 | 4349 ft | 231 kts | 231° |
| 2026-04-22 10:26 | 50.44277 | 4.18153 | 4207 ft | 209 kts | 187° |
| 2026-04-22 10:26 | 50.42926 | 4.18262 | 3978 ft | 189 kts | 150° |
| 2026-04-22 10:27 | 50.41788 | 4.19166 | 3825 ft | 179 kts | 145° |
| 2026-04-22 10:27 | 50.40680 | 4.20073 | 3772 ft | 177 kts | 145° |
| 2026-04-22 10:27 | 50.39849 | 4.21338 | 3679 ft | 166 kts | 110° |
| 2026-04-22 10:27 | 50.39758 | 4.23102 | 3502 ft | 163 kts | 81° |
| 2026-04-22 10:28 | 50.40066 | 4.24783 | 3278 ft | 157 kts | 70° |
| 2026-04-22 10:28 | 50.40476 | 4.26285 | 3071 ft | 144 kts | 67° |
| 2026-04-22 10:28 | 50.40894 | 4.27701 | 2870 ft | 143 kts | 67° |
| 2026-04-22 10:28 | 50.41310 | 4.29116 | 2676 ft | 143 kts | 68° |
| 2026-04-22 10:29 | 50.41705 | 4.30473 | 2486 ft | 131 kts | 69° |
| 2026-04-22 10:29 | 50.42065 | 4.31723 | 2296 ft | 120 kts | 67° |
| 2026-04-22 10:29 | 50.42406 | 4.32904 | 2141 ft | 119 kts | 69° |
| 2026-04-22 10:29 | 50.42748 | 4.34091 | 2003 ft | 119 kts | 67° |
| 2026-04-22 10:30 | 50.43088 | 4.35269 | 1850 ft | 118 kts | 68° |
| 2026-04-22 10:30 | 50.43425 | 4.36442 | 1705 ft | 118 kts | 66° |
| 2026-04-22 10:30 | 50.43766 | 4.37617 | 1546 ft | 118 kts | 67° |
| 2026-04-22 10:30 | 50.44109 | 4.38777 | 1369 ft | 118 kts | 67° |
| 2026-04-22 10:31 | 50.44455 | 4.39947 | 1193 ft | 117 kts | 68° |
| 2026-04-22 10:31 | 50.44789 | 4.41110 | 1038 ft | 117 kts | 66° |
| 2026-04-22 10:31 | 50.45116 | 4.42265 | 887 ft | 116 kts | 66° |
| 2026-04-22 10:31 | 50.45458 | 4.43426 | 729 ft | 116 kts | 68° |
| 2026-04-22 10:32 | 50.45782 | 4.44575 | 620 ft | 113 kts | 68° |
| 2026-04-22 10:32 | 50.46017 | 4.45399 | 615 ft | 41 kts | 66° |
| 2026-04-22 10:32 | 50.46103 | 4.45697 | 612 ft | 28 kts | 68° |
| 2026-04-22 10:32 | 50.46185 | 4.45976 | 607 ft | 28 kts | 64° |
| 2026-04-22 10:33 | 50.46268 | 4.46254 | 601 ft | 28 kts | 64° |
| 2026-04-22 10:33 | 50.46350 | 4.46538 | 595 ft | 28 kts | 66° |
| 2026-04-22 10:33 | 50.46427 | 4.46803 | 590 ft | 18 kts | 64° |
| 2026-04-22 10:33 | 50.46520 | 4.46883 | 588 ft | 17 kts | 342° |
| 2026-04-22 10:34 | 50.46612 | 4.46821 | 588 ft | 13 kts | 336° |
| 2026-04-22 10:34 | 50.46701 | 4.46800 | 588 ft | 14 kts | 43° |
| 2026-04-22 10:34 | 50.46747 | 4.46945 | 586 ft | 15 kts | 66° |
| 2026-04-22 10:34 | 50.46793 | 4.47112 | 584 ft | 17 kts | 65° |
| 2026-04-22 10:35 | 50.46845 | 4.47293 | 582 ft | 18 kts | 65° |
| 2026-04-22 10:35 | 50.46890 | 4.47379 | 581 ft | 9 kts | 355° |
| 2026-04-22 10:35 | 50.46932 | 4.47352 | 581 ft | 3 kts | 335° |
| 2026-04-22 10:35 | 50.46944 | 4.47343 | 581 ft | 0 kts | 335° |
| 2026-04-22 10:36 | 50.46945 | 4.47343 | 581 ft | 0 kts | 335° |